createdAt,value
2023-04-09T00:02:25.302Z,10.43
2023-04-09T00:04:52.619Z,9.63
2023-04-09T00:07:19.857Z,12.23
2023-04-09T00:09:46.825Z,9.50
2023-04-09T00:12:13.834Z,8.02
2023-04-09T00:14:40.819Z,10.38
2023-04-09T00:17:07.763Z,10.52
2023-04-09T00:19:34.721Z,8.80
2023-04-09T00:22:01.805Z,8.23
2023-04-09T00:24:28.753Z,9.02
2023-04-09T00:26:55.692Z,12.60
2023-04-09T00:29:22.809Z,12.07
2023-04-09T00:31:49.926Z,8.90
2023-04-09T00:34:16.929Z,9.38
2023-04-09T00:36:43.885Z,10.63
2023-04-09T00:39:11.052Z,9.85
2023-04-09T00:41:38.208Z,11.10
2023-04-09T00:44:05.151Z,10.25
2023-04-09T00:46:32.663Z,9.65
2023-04-09T00:49:00.109Z,9.32
2023-04-09T00:51:28.645Z,12.13
2023-04-09T00:53:56.259Z,9.18
2023-04-09T00:56:24.838Z,10.23
2023-04-09T00:58:52.050Z,11.00
2023-04-09T01:01:19.353Z,7.78
2023-04-09T01:03:46.681Z,12.30
2023-04-09T01:06:38.063Z,7.35
2023-04-09T01:09:35.510Z,9.98
2023-04-09T01:12:38.877Z,9.15
2023-04-09T01:15:08.718Z,10.65
2023-04-09T01:17:50.605Z,8.98
2023-04-09T01:20:40.854Z,11.70
2023-04-09T01:23:10.675Z,9.75
2023-04-09T01:25:59.316Z,13.18
2023-04-09T01:28:35.423Z,9.70
2023-04-09T01:31:09.032Z,9.95
2023-04-09T01:33:38.064Z,11.02
2023-04-09T01:36:07.147Z,10.65
2023-04-09T01:38:36.731Z,11.15
2023-04-09T01:41:05.263Z,10.73
2023-04-09T01:43:33.767Z,11.35
2023-04-09T01:46:03.434Z,11.35
2023-04-09T01:48:31.669Z,10.90
2023-04-09T01:50:59.459Z,11.23
2023-04-09T01:53:29.323Z,15.70
2023-04-09T01:55:56.839Z,10.32
2023-04-09T01:58:25.642Z,10.85
2023-04-09T02:00:59.886Z,10.85
2023-04-09T02:03:51.789Z,13.48
2023-04-09T02:06:44.433Z,11.73
2023-04-09T02:09:12.685Z,11.27
2023-04-09T02:11:43.154Z,9.45
2023-04-09T02:14:11.875Z,12.80
2023-04-09T02:16:40.789Z,11.07
2023-04-09T02:19:07.868Z,10.27
2023-04-09T02:21:34.849Z,12.82
2023-04-09T02:24:01.827Z,13.38
2023-04-09T02:26:28.862Z,13.00
2023-04-09T02:28:55.951Z,10.35
2023-04-09T02:31:22.946Z,13.93
2023-04-09T02:33:51.125Z,10.57
2023-04-09T02:36:18.096Z,13.13
2023-04-09T02:38:45.529Z,14.55
2023-04-09T02:41:12.619Z,13.85
2023-04-09T02:43:39.636Z,13.45
2023-04-09T02:46:08.510Z,15.57
2023-04-09T02:48:35.442Z,13.50
2023-04-09T02:51:05.360Z,14.50
2023-04-09T02:53:32.308Z,15.07
2023-04-09T02:55:59.279Z,11.60
2023-04-09T02:58:26.289Z,12.68
2023-04-09T03:00:53.293Z,13.23
2023-04-09T03:03:20.521Z,16.90
2023-04-09T03:05:47.509Z,15.27
2023-04-09T03:08:14.737Z,16.67
2023-04-09T03:10:41.857Z,18.27
2023-04-09T03:13:08.850Z,18.98
2023-04-09T03:15:36.113Z,17.20
2023-04-09T03:18:03.170Z,18.33
2023-04-09T03:20:30.734Z,18.58
2023-04-09T03:22:57.708Z,19.13
2023-04-09T03:25:24.771Z,18.30
2023-04-09T03:27:51.966Z,17.45
2023-04-09T03:30:18.938Z,17.88
2023-04-09T03:32:45.936Z,18.90
2023-04-09T03:35:12.959Z,19.98
2023-04-09T03:38:41.669Z,18.88
2023-04-09T03:41:08.663Z,20.27
2023-04-09T03:43:36.229Z,18.90
2023-04-09T03:46:15.671Z,24.27
2023-04-09T03:48:42.956Z,19.67
2023-04-09T03:51:17.018Z,22.58
2023-04-09T03:53:44.156Z,18.48
2023-04-09T03:56:11.676Z,19.33
2023-04-09T03:58:38.737Z,23.75
2023-04-09T04:01:05.997Z,19.13
2023-04-09T04:03:33.215Z,22.90
2023-04-09T04:06:04.773Z,20.77
2023-04-09T04:08:31.748Z,22.75
2023-04-09T04:11:04.886Z,20.00
2023-04-09T04:13:32.092Z,21.80
2023-04-09T04:15:59.250Z,18.80
2023-04-09T04:18:26.280Z,19.10
2023-04-09T04:20:53.224Z,20.63
2023-04-09T04:23:20.254Z,23.00
2023-04-09T04:25:47.244Z,19.25
2023-04-09T04:28:14.238Z,23.17
2023-04-09T04:30:44.225Z,20.08
2023-04-09T04:33:11.256Z,21.88
2023-04-09T04:35:38.350Z,20.45
2023-04-09T04:38:05.394Z,19.77
2023-04-09T04:40:32.397Z,20.88
2023-04-09T04:42:59.391Z,18.55
2023-04-09T04:45:26.427Z,20.63
2023-04-09T04:47:53.506Z,24.17
2023-04-09T04:50:20.582Z,19.80
2023-04-09T04:52:47.532Z,22.40
2023-04-09T04:55:14.516Z,18.90
2023-04-09T04:57:41.462Z,19.55
2023-04-09T05:00:09.302Z,21.50
2023-04-09T05:02:36.386Z,17.55
2023-04-09T05:05:03.580Z,23.25
2023-04-09T05:07:30.647Z,20.58
2023-04-09T05:09:58.810Z,19.33
2023-04-09T05:12:25.896Z,20.73
2023-04-09T05:14:53.162Z,19.95
2023-04-09T05:17:20.257Z,22.92
2023-04-09T05:19:55.019Z,19.25
2023-04-09T05:22:22.090Z,20.50
2023-04-09T05:24:49.208Z,19.00
2023-04-09T05:27:16.678Z,20.98
2023-04-09T05:29:43.690Z,21.48
2023-04-09T05:32:10.751Z,17.50
2023-04-09T05:34:37.716Z,20.17
2023-04-09T05:37:04.764Z,19.77
2023-04-09T05:39:33.274Z,17.55
2023-04-09T05:42:00.951Z,21.75
2023-04-09T05:44:28.098Z,19.92
2023-04-09T05:46:55.079Z,21.88
2023-04-09T05:49:22.271Z,22.80
2023-04-09T05:51:50.710Z,24.52
2023-04-09T05:54:17.843Z,23.92
2023-04-09T05:56:44.848Z,23.50
2023-04-09T05:59:11.866Z,22.83
2023-04-09T06:01:38.811Z,21.25
2023-04-09T06:04:06.253Z,25.77
2023-04-09T06:06:33.358Z,23.65
2023-04-09T06:09:00.369Z,24.17
2023-04-09T06:11:27.346Z,23.40
2023-04-09T06:13:54.449Z,21.05
2023-04-09T06:16:21.674Z,25.80
2023-04-09T06:18:50.927Z,21.08
2023-04-09T06:21:18.018Z,19.15
2023-04-09T06:23:45.159Z,23.08
2023-04-09T06:26:12.308Z,19.45
2023-04-09T06:28:39.474Z,23.30
2023-04-09T06:31:06.617Z,20.58
2023-04-09T06:33:33.725Z,21.90
2023-04-09T06:36:00.824Z,23.50
2023-04-09T06:38:27.882Z,24.10
2023-04-09T06:40:57.267Z,18.92
2023-04-09T06:43:24.302Z,22.42
2023-04-09T06:45:51.536Z,18.58
2023-04-09T06:48:18.697Z,24.92
2023-04-09T06:50:45.916Z,24.65
2023-04-09T06:53:13.039Z,21.45
2023-04-09T06:55:40.205Z,18.25
2023-04-09T06:58:07.139Z,17.15
2023-04-09T07:00:34.151Z,22.02
2023-04-09T07:03:01.717Z,22.92
2023-04-09T07:05:28.980Z,23.55
2023-04-09T07:07:56.138Z,17.40
2023-04-09T07:10:23.087Z,28.00
2023-04-09T07:12:50.082Z,22.48
2023-04-09T07:15:17.203Z,22.70
2023-04-09T07:17:44.370Z,22.25
2023-04-09T07:20:12.055Z,19.95
2023-04-09T07:22:39.117Z,20.92
2023-04-09T07:25:06.891Z,23.65
2023-04-09T07:27:33.884Z,21.67
2023-04-09T07:30:01.144Z,23.88
2023-04-09T07:32:28.722Z,21.15
2023-04-09T07:34:57.358Z,22.20
2023-04-09T07:37:24.510Z,22.00
2023-04-09T07:39:51.592Z,23.42
2023-04-09T07:42:18.587Z,21.05
2023-04-09T07:44:45.700Z,21.02
2023-04-09T07:47:13.008Z,19.17
2023-04-09T07:49:40.638Z,21.20
2023-04-09T07:52:08.211Z,20.10
2023-04-09T07:54:35.852Z,20.38
2023-04-09T07:57:03.145Z,24.13
2023-04-09T07:59:31.661Z,20.58
2023-04-09T08:01:59.634Z,24.63
2023-04-09T08:04:27.431Z,20.15
2023-04-09T08:06:54.863Z,23.75
2023-04-09T08:09:21.924Z,25.08
2023-04-09T08:11:50.409Z,20.17
2023-04-09T08:14:18.597Z,22.92
2023-04-09T08:16:50.309Z,21.88
2023-04-09T08:19:20.104Z,24.67
2023-04-09T08:21:48.985Z,19.80
2023-04-09T08:24:16.524Z,20.92
2023-04-09T08:26:43.901Z,22.73
2023-04-09T08:29:13.104Z,19.88
2023-04-09T08:31:40.436Z,22.70
2023-04-09T08:34:07.727Z,20.50
2023-04-09T08:36:35.805Z,21.83
2023-04-09T08:39:04.090Z,19.40
2023-04-09T08:41:31.530Z,19.30
2023-04-09T08:43:59.983Z,23.63
2023-04-09T08:46:28.068Z,18.17
2023-04-09T08:48:55.931Z,20.05
2023-04-09T08:51:24.538Z,19.65
2023-04-09T08:54:03.045Z,18.27
2023-04-09T08:56:31.484Z,20.42
2023-04-09T08:58:58.683Z,21.52
2023-04-09T09:01:27.234Z,25.20
2023-04-09T09:04:06.307Z,19.88
2023-04-09T09:06:37.149Z,23.60
2023-04-09T09:09:11.001Z,20.05
2023-04-09T09:11:39.564Z,19.83
2023-04-09T09:14:17.993Z,21.20
2023-04-09T09:16:57.843Z,19.92
2023-04-09T09:19:24.781Z,21.13
2023-04-09T09:22:03.112Z,19.05
2023-04-09T09:24:34.993Z,20.40
2023-04-09T09:27:03.068Z,15.07
2023-04-09T09:29:30.266Z,24.67
2023-04-09T09:31:57.344Z,18.80
2023-04-09T09:34:26.004Z,20.25
2023-04-09T09:36:53.296Z,21.27
2023-04-09T09:39:22.079Z,18.50
2023-04-09T09:42:06.604Z,19.40
2023-04-09T09:44:34.005Z,24.75
2023-04-09T09:47:03.502Z,22.40
2023-04-09T09:49:30.720Z,25.08
2023-04-09T09:51:59.510Z,21.38
2023-04-09T09:54:31.929Z,23.70
2023-04-09T09:57:04.771Z,21.77
2023-04-09T10:02:07.503Z,23.02
2023-04-09T10:04:38.157Z,24.40
2023-04-09T10:07:07.437Z,22.02
2023-04-09T10:09:37.769Z,21.27
2023-04-09T10:12:09.673Z,23.20
2023-04-09T10:14:37.360Z,21.67
2023-04-09T10:17:04.934Z,20.35
2023-04-09T10:19:35.680Z,19.83
2023-04-09T10:22:12.097Z,21.20
2023-04-09T10:24:39.726Z,24.50
2023-04-09T10:27:17.057Z,25.85
2023-04-09T10:29:49.645Z,20.17
2023-04-09T10:32:23.931Z,18.45
2023-04-09T10:34:51.060Z,21.25
2023-04-09T10:37:26.806Z,23.15
2023-04-09T10:39:54.510Z,18.55
2023-04-09T10:42:30.365Z,15.25
2023-04-09T10:45:10.824Z,21.00
2023-04-09T10:47:40.468Z,22.67
2023-04-09T10:50:24.132Z,15.77
2023-04-09T10:53:00.390Z,19.05
2023-04-09T10:55:37.147Z,16.63
2023-04-09T10:58:12.346Z,19.58
2023-04-09T11:00:45.611Z,20.92
2023-04-09T11:03:26.152Z,19.77
2023-04-09T11:06:10.571Z,20.98
2023-04-09T11:08:38.907Z,19.05
2023-04-09T11:11:06.158Z,16.50
2023-04-09T11:13:34.372Z,16.83
2023-04-09T11:16:04.135Z,16.63
2023-04-09T11:18:33.900Z,15.77
2023-04-09T11:21:04.094Z,18.08
2023-04-09T11:23:32.886Z,19.92
2023-04-09T11:26:00.110Z,16.83
2023-04-09T11:28:27.738Z,17.85
2023-04-09T11:30:54.841Z,19.23
2023-04-09T11:33:22.452Z,16.98
2023-04-09T11:35:49.555Z,17.48
2023-04-09T11:38:16.723Z,15.90
2023-04-09T11:40:49.379Z,19.20
2023-04-09T11:43:17.712Z,15.02
2023-04-09T11:45:48.117Z,16.52
2023-04-09T11:48:18.400Z,15.27
2023-04-09T11:50:47.471Z,17.00
2023-04-09T11:53:19.717Z,16.80
2023-04-09T11:55:56.334Z,14.32
2023-04-09T11:58:26.291Z,15.18
2023-04-09T12:00:56.260Z,15.82
2023-04-09T12:03:34.187Z,12.52
2023-04-09T12:06:03.102Z,13.20
2023-04-09T12:08:31.293Z,16.10
2023-04-09T12:11:12.843Z,12.23
2023-04-09T12:13:45.843Z,11.38
2023-04-09T12:16:14.390Z,12.75
2023-04-09T12:18:41.711Z,14.00
2023-04-09T12:21:08.887Z,11.15
2023-04-09T12:23:36.066Z,12.27
2023-04-09T12:26:03.252Z,10.68
2023-04-09T12:28:30.956Z,6.78
2023-04-09T12:30:59.556Z,12.07
2023-04-09T12:33:27.231Z,12.63
2023-04-09T12:35:54.276Z,12.25
2023-04-09T12:38:21.437Z,15.13
2023-04-09T12:40:48.521Z,12.77
2023-04-09T12:43:15.800Z,12.88
2023-04-09T12:45:43.185Z,11.88
2023-04-09T12:48:10.327Z,10.13
2023-04-09T12:50:37.326Z,11.68
2023-04-09T12:53:04.348Z,12.18
2023-04-09T12:55:31.671Z,12.40
2023-04-09T12:57:58.783Z,9.07
2023-04-09T13:00:25.792Z,10.30
2023-04-09T13:02:53.104Z,10.43
2023-04-09T13:05:20.358Z,10.98
2023-04-09T13:07:47.605Z,12.30
2023-04-09T13:10:14.731Z,11.60
2023-04-09T13:12:41.707Z,11.07
2023-04-09T13:15:08.997Z,10.88
2023-04-09T13:17:36.058Z,9.40
2023-04-09T13:20:03.753Z,11.20
2023-04-09T13:22:30.991Z,13.35
2023-04-09T13:24:58.007Z,8.88
2023-04-09T13:27:25.030Z,13.05
2023-04-09T13:29:52.071Z,9.88
2023-04-09T13:32:21.193Z,9.60
2023-04-09T13:34:48.281Z,11.65
2023-04-09T13:37:15.739Z,11.18
2023-04-09T13:39:44.303Z,10.02
2023-04-09T13:42:14.165Z,8.43
2023-04-09T13:44:44.629Z,8.27
2023-04-09T13:47:13.521Z,9.63
2023-04-09T13:49:41.455Z,9.73
2023-04-09T13:52:09.128Z,10.45
2023-04-09T13:54:36.308Z,9.02
2023-04-09T13:57:03.940Z,9.70
2023-04-09T13:59:31.038Z,8.10
2023-04-09T14:01:58.301Z,7.50
2023-04-09T14:04:25.579Z,8.75
2023-04-09T14:06:52.579Z,8.35
2023-04-09T14:09:19.578Z,8.45
2023-04-09T14:11:46.558Z,8.65
2023-04-09T14:14:13.578Z,8.27
2023-04-09T14:16:40.800Z,8.15
2023-04-09T14:19:10.048Z,7.60
2023-04-09T14:21:37.061Z,8.82
2023-04-09T14:24:04.263Z,8.80
2023-04-09T14:26:31.626Z,9.68
2023-04-09T14:28:59.626Z,7.88
2023-04-09T14:31:26.764Z,8.60
2023-04-09T14:33:53.732Z,8.93
2023-04-09T14:36:21.433Z,7.50
2023-04-09T14:38:49.221Z,9.75
2023-04-09T14:41:17.076Z,7.97
2023-04-09T14:43:44.121Z,7.65
2023-04-09T14:46:12.205Z,8.85
2023-04-09T14:48:40.248Z,8.55
2023-04-09T14:51:10.124Z,7.03
2023-04-09T14:53:37.500Z,7.30
2023-04-09T14:56:05.149Z,8.40
2023-04-09T14:58:32.165Z,9.02
2023-04-09T15:00:59.112Z,6.40
2023-04-09T15:03:26.315Z,8.52
2023-04-09T15:05:53.724Z,6.68
2023-04-09T15:08:20.989Z,9.07
2023-04-09T15:10:48.016Z,5.97
2023-04-09T15:13:14.984Z,7.28
2023-04-09T15:15:44.077Z,7.57
2023-04-09T15:18:11.232Z,8.05
2023-04-09T15:20:39.361Z,8.85
2023-04-09T15:23:06.690Z,6.03
2023-04-09T15:25:33.752Z,6.65
2023-04-09T15:28:02.153Z,8.68
2023-04-09T15:30:29.675Z,9.13
2023-04-09T15:32:56.800Z,8.65
2023-04-09T15:35:29.392Z,6.10
2023-04-09T15:40:24.181Z,7.10
2023-04-09T15:42:51.312Z,9.02
2023-04-09T15:45:18.467Z,8.25
2023-04-09T15:47:46.227Z,6.65
2023-04-09T15:50:14.094Z,6.82
2023-04-09T15:52:41.192Z,7.60
2023-04-09T15:55:09.133Z,7.25
2023-04-09T15:57:36.496Z,6.18
2023-04-09T16:00:04.341Z,5.95
2023-04-09T16:02:31.399Z,6.38
2023-04-09T16:04:58.556Z,5.28
2023-04-09T16:07:25.689Z,7.75
2023-04-09T16:09:52.723Z,5.38
2023-04-09T16:12:19.707Z,6.80
2023-04-09T16:14:46.657Z,7.30
2023-04-09T16:17:13.614Z,7.18
2023-04-09T16:19:41.863Z,6.13
2023-04-09T16:22:09.926Z,7.03
2023-04-09T16:24:37.087Z,5.93
2023-04-09T16:27:04.128Z,7.82
2023-04-09T16:29:31.150Z,7.28
2023-04-09T16:31:58.200Z,5.65
2023-04-09T16:34:25.281Z,7.50
2023-04-09T16:36:52.346Z,9.02
2023-04-09T16:39:19.928Z,7.10
2023-04-09T16:41:46.885Z,5.95
2023-04-09T16:44:14.021Z,5.78
2023-04-09T16:46:41.389Z,5.72
2023-04-09T16:49:08.413Z,7.20
2023-04-09T16:51:35.796Z,5.55
2023-04-09T16:54:03.214Z,7.07
2023-04-09T16:56:30.680Z,6.10
2023-04-09T16:58:58.934Z,6.75
2023-04-09T17:01:26.414Z,5.70
2023-04-09T17:03:53.541Z,8.00
2023-04-09T17:06:20.718Z,6.60
2023-04-09T17:08:47.774Z,6.43
2023-04-09T17:11:16.590Z,5.13
2023-04-09T17:13:43.598Z,5.45
2023-04-09T17:16:14.330Z,6.90
2023-04-09T17:18:41.466Z,6.97
2023-04-09T17:21:08.446Z,7.40
2023-04-09T17:23:36.161Z,7.45
2023-04-09T17:26:03.196Z,7.88
2023-04-09T17:28:30.153Z,6.30
2023-04-09T17:30:57.269Z,6.65
2023-04-09T17:33:24.362Z,6.57
2023-04-09T17:35:52.938Z,7.80
2023-04-09T17:38:21.572Z,7.65
2023-04-09T17:40:48.887Z,6.28
2023-04-09T17:43:15.894Z,7.10
2023-04-09T17:45:43.278Z,12.35
2023-04-09T17:48:10.795Z,6.57
2023-04-09T17:50:39.087Z,6.45
2023-04-09T17:53:06.241Z,7.72
2023-04-09T17:55:33.443Z,10.38
2023-04-09T17:58:00.532Z,6.00
2023-04-09T18:00:28.876Z,7.03
2023-04-09T18:02:57.819Z,8.10
2023-04-09T18:05:26.080Z,7.45
2023-04-09T18:07:54.968Z,8.40
2023-04-09T18:10:22.657Z,9.05
2023-04-09T18:12:49.754Z,6.40
2023-04-09T18:15:18.723Z,7.82
2023-04-09T18:17:46.307Z,9.13
2023-04-09T18:20:15.394Z,6.93
2023-04-09T18:22:43.609Z,9.23
2023-04-09T18:25:10.913Z,11.65
2023-04-09T18:27:37.929Z,6.40
2023-04-09T18:30:07.311Z,7.75
2023-04-09T18:32:34.452Z,8.80
2023-04-09T18:35:01.735Z,9.57
2023-04-09T18:37:28.711Z,6.65
2023-04-09T18:39:55.751Z,8.05
2023-04-09T18:42:22.767Z,10.40
2023-04-09T18:44:49.729Z,8.07
2023-04-09T18:47:16.735Z,8.35
2023-04-09T18:49:43.698Z,9.70
2023-04-09T18:52:10.823Z,8.73
2023-04-09T18:54:38.964Z,6.80
2023-04-09T18:57:06.524Z,9.48
2023-04-09T18:59:34.965Z,8.20
2023-04-09T19:02:06.058Z,8.38
2023-04-09T19:04:39.828Z,11.55
2023-04-09T19:07:07.712Z,9.93
2023-04-09T19:09:35.585Z,9.75
2023-04-09T19:12:02.839Z,9.77
2023-04-09T19:14:30.050Z,7.90
2023-04-09T19:16:58.613Z,7.70
2023-04-09T19:19:25.712Z,7.95
2023-04-09T19:21:52.707Z,8.95
2023-04-09T19:24:19.678Z,7.53
2023-04-09T19:26:46.656Z,8.80
2023-04-09T19:29:13.579Z,8.90
2023-04-09T19:31:41.472Z,7.93
2023-04-09T19:34:10.775Z,7.93
2023-04-09T19:36:37.889Z,7.95
2023-04-09T19:39:05.903Z,7.47
2023-04-09T19:41:33.293Z,8.73
2023-04-09T19:44:01.435Z,8.75
2023-04-09T19:46:28.564Z,8.45
2023-04-09T19:48:56.757Z,8.38
2023-04-09T19:51:23.754Z,10.85
2023-04-09T19:53:50.721Z,9.02
2023-04-09T19:56:18.047Z,10.05
2023-04-09T19:58:45.124Z,9.70
2023-04-09T20:01:12.155Z,8.75
2023-04-09T20:03:39.211Z,11.05
2023-04-09T20:06:10.460Z,8.68
2023-04-09T20:08:38.254Z,8.57
2023-04-09T20:11:05.592Z,9.35
2023-04-09T20:13:33.305Z,7.90
2023-04-09T20:16:00.728Z,11.52
2023-04-09T20:18:28.673Z,11.43
2023-04-09T20:20:55.705Z,9.52
2023-04-09T20:23:22.777Z,8.93
2023-04-09T20:25:54.945Z,8.35
2023-04-09T20:28:22.147Z,10.43
2023-04-09T20:30:49.418Z,8.95
2023-04-09T20:33:18.193Z,9.20
2023-04-09T20:35:45.538Z,8.82
2023-04-09T20:38:12.569Z,9.18
2023-04-09T20:40:39.677Z,10.50
2023-04-09T20:43:06.664Z,8.82
2023-04-09T20:45:33.708Z,8.82
2023-04-09T20:48:01.444Z,10.45
2023-04-09T20:50:28.943Z,10.45
2023-04-09T20:52:56.070Z,9.77
2023-04-09T20:55:23.902Z,7.13
2023-04-09T20:57:51.879Z,8.48
2023-04-09T21:00:18.939Z,9.50
2023-04-09T21:02:46.243Z,7.18
2023-04-09T21:05:22.426Z,8.98
2023-04-09T21:07:50.834Z,8.52
2023-04-09T21:10:17.946Z,7.43
2023-04-09T21:12:44.924Z,8.27
2023-04-09T21:15:12.031Z,9.55
2023-04-09T21:17:38.958Z,8.05
2023-04-09T21:20:06.696Z,8.23
2023-04-09T21:22:34.792Z,9.10
2023-04-09T21:25:03.192Z,8.90
2023-04-09T21:27:30.467Z,7.53
2023-04-09T21:29:57.575Z,6.35
2023-04-09T21:32:25.261Z,7.97
2023-04-09T21:34:52.408Z,10.32
2023-04-09T21:37:19.377Z,7.72
2023-04-09T21:39:48.294Z,8.25
2023-04-09T21:42:15.756Z,9.50
2023-04-09T21:44:42.750Z,6.05
2023-04-09T21:47:09.785Z,7.68
2023-04-09T21:49:39.356Z,6.82
2023-04-09T21:52:13.808Z,7.13
2023-04-09T21:54:43.199Z,7.13
2023-04-09T21:57:11.177Z,7.15
2023-04-09T21:59:38.380Z,7.13
2023-04-09T22:02:05.698Z,8.43
2023-04-09T22:04:35.801Z,6.80
2023-04-09T22:07:03.685Z,9.70
2023-04-09T22:09:31.624Z,5.35
2023-04-09T22:11:59.660Z,7.57
2023-04-09T22:14:29.318Z,7.07
2023-04-09T22:16:58.333Z,8.20
2023-04-09T22:19:26.248Z,6.82
2023-04-09T22:21:53.641Z,6.68
2023-04-09T22:24:26.876Z,6.45
2023-04-09T22:26:54.178Z,6.43
2023-04-09T22:29:21.318Z,6.40
2023-04-09T22:31:48.386Z,8.02
2023-04-09T22:34:21.325Z,6.82
2023-04-09T22:36:48.853Z,9.32
2023-04-09T22:39:16.054Z,6.20
2023-04-09T22:41:43.136Z,6.70
2023-04-09T22:44:10.118Z,7.47
2023-04-09T22:46:37.279Z,7.85
2023-04-09T22:49:05.789Z,5.82
2023-04-09T22:51:34.678Z,5.88
2023-04-09T22:54:02.347Z,6.32
2023-04-09T22:56:31.811Z,6.60
2023-04-09T22:58:59.168Z,6.57
2023-04-09T23:01:27.800Z,7.13
2023-04-09T23:03:55.606Z,6.55
2023-04-09T23:06:22.942Z,6.65
2023-04-09T23:08:50.601Z,7.63
2023-04-09T23:11:17.611Z,7.20
2023-04-09T23:13:44.678Z,7.93
2023-04-09T23:16:11.747Z,7.70
2023-04-09T23:18:38.830Z,8.27
2023-04-09T23:21:08.103Z,6.75
2023-04-09T23:23:36.163Z,5.93
2023-04-09T23:26:03.258Z,7.00
2023-04-09T23:28:31.015Z,9.75
2023-04-09T23:30:58.093Z,6.70
2023-04-09T23:33:25.279Z,5.53
2023-04-09T23:35:52.412Z,8.50
2023-04-09T23:38:19.545Z,7.30
2023-04-09T23:40:48.171Z,7.18
2023-04-09T23:43:15.158Z,6.30
2023-04-09T23:45:43.821Z,11.30
2023-04-09T23:48:12.516Z,6.60
2023-04-09T23:50:41.416Z,5.78
2023-04-09T23:53:08.946Z,7.00
2023-04-09T23:55:41.159Z,7.25
2023-04-09T23:58:09.573Z,8.07
